sensor_id;sensor_type;location;lat;lon;timestamp;P1;durP1;ratioP1;P2;durP2;ratioP2
65691;SDS011;52411;52.716;6.696;2023-01-23T00:01:09;21.58;;;10.68;;
65691;SDS011;52411;52.716;6.696;2023-01-23T00:03:40;26.27;;;10.50;;
65691;SDS011;52411;52.716;6.696;2023-01-23T00:06:07;20.45;;;10.50;;
65691;SDS011;52411;52.716;6.696;2023-01-23T00:11:07;14.30;;;6.60;;
65691;SDS011;52411;52.716;6.696;2023-01-23T00:13:35;19.35;;;8.07;;
65691;SDS011;52411;52.716;6.696;2023-01-23T00:16:04;22.67;;;9.98;;
65691;SDS011;52411;52.716;6.696;2023-01-23T00:18:31;20.50;;;9.27;;
65691;SDS011;52411;52.716;6.696;2023-01-23T00:20:57;20.25;;;9.55;;
65691;SDS011;52411;52.716;6.696;2023-01-23T00:23:27;15.38;;;8.38;;
65691;SDS011;52411;52.716;6.696;2023-01-23T00:25:53;18.83;;;9.15;;
65691;SDS011;52411;52.716;6.696;2023-01-23T00:28:18;19.70;;;8.98;;
65691;SDS011;52411;52.716;6.696;2023-01-23T00:30:44;19.55;;;10.02;;
65691;SDS011;52411;52.716;6.696;2023-01-23T00:33:09;18.52;;;9.52;;
65691;SDS011;52411;52.716;6.696;2023-01-23T00:35:35;17.55;;;9.60;;
65691;SDS011;52411;52.716;6.696;2023-01-23T00:38:00;23.98;;;10.32;;
65691;SDS011;52411;52.716;6.696;2023-01-23T00:40:26;19.02;;;10.20;;
65691;SDS011;52411;52.716;6.696;2023-01-23T00:42:52;19.08;;;9.63;;
65691;SDS011;52411;52.716;6.696;2023-01-23T00:45:18;20.48;;;10.13;;
65691;SDS011;52411;52.716;6.696;2023-01-23T00:47:43;21.35;;;10.45;;
65691;SDS011;52411;52.716;6.696;2023-01-23T00:50:09;19.98;;;9.32;;
65691;SDS011;52411;52.716;6.696;2023-01-23T00:52:35;23.45;;;10.63;;
65691;SDS011;52411;52.716;6.696;2023-01-23T00:55:01;14.32;;;6.22;;
65691;SDS011;52411;52.716;6.696;2023-01-23T00:57:27;20.80;;;9.00;;
65691;SDS011;52411;52.716;6.696;2023-01-23T00:59:53;20.67;;;9.02;;
65691;SDS011;52411;52.716;6.696;2023-01-23T01:02:18;15.75;;;8.90;;
65691;SDS011;52411;52.716;6.696;2023-01-23T01:04:44;24.90;;;10.25;;
65691;SDS011;52411;52.716;6.696;2023-01-23T01:07:10;21.50;;;8.85;;
65691;SDS011;52411;52.716;6.696;2023-01-23T01:09:35;18.92;;;9.32;;
65691;SDS011;52411;52.716;6.696;2023-01-23T01:12:01;21.75;;;8.93;;
65691;SDS011;52411;52.716;6.696;2023-01-23T01:14:26;17.70;;;9.88;;
65691;SDS011;52411;52.716;6.696;2023-01-23T01:16:52;20.77;;;9.80;;
65691;SDS011;52411;52.716;6.696;2023-01-23T01:19:18;21.60;;;9.38;;
65691;SDS011;52411;52.716;6.696;2023-01-23T01:21:44;18.55;;;9.68;;
65691;SDS011;52411;52.716;6.696;2023-01-23T01:24:09;17.80;;;9.60;;
65691;SDS011;52411;52.716;6.696;2023-01-23T01:26:35;19.58;;;9.52;;
65691;SDS011;52411;52.716;6.696;2023-01-23T01:29:00;22.27;;;10.30;;
65691;SDS011;52411;52.716;6.696;2023-01-23T01:31:26;21.42;;;10.45;;
65691;SDS011;52411;52.716;6.696;2023-01-23T01:33:52;20.00;;;9.77;;
65691;SDS011;52411;52.716;6.696;2023-01-23T01:36:18;19.80;;;9.07;;
65691;SDS011;52411;52.716;6.696;2023-01-23T01:38:45;19.15;;;9.60;;
65691;SDS011;52411;52.716;6.696;2023-01-23T01:41:11;18.95;;;9.38;;
65691;SDS011;52411;52.716;6.696;2023-01-23T01:43:38;19.48;;;9.43;;
65691;SDS011;52411;52.716;6.696;2023-01-23T01:51:14;18.20;;;9.23;;
65691;SDS011;52411;52.716;6.696;2023-01-23T01:53:48;19.52;;;9.90;;
65691;SDS011;52411;52.716;6.696;2023-01-23T01:56:19;19.25;;;9.90;;
65691;SDS011;52411;52.716;6.696;2023-01-23T01:58:45;17.08;;;10.18;;
65691;SDS011;52411;52.716;6.696;2023-01-23T02:01:13;17.58;;;9.20;;
65691;SDS011;52411;52.716;6.696;2023-01-23T02:03:39;19.80;;;9.77;;
65691;SDS011;52411;52.716;6.696;2023-01-23T02:06:05;26.73;;;10.65;;
65691;SDS011;52411;52.716;6.696;2023-01-23T02:08:41;20.77;;;11.05;;
65691;SDS011;52411;52.716;6.696;2023-01-23T02:11:08;20.38;;;9.40;;
65691;SDS011;52411;52.716;6.696;2023-01-23T02:13:35;20.58;;;10.02;;
65691;SDS011;52411;52.716;6.696;2023-01-23T02:16:09;23.88;;;10.10;;
65691;SDS011;52411;52.716;6.696;2023-01-23T02:18:36;20.95;;;10.15;;
65691;SDS011;52411;52.716;6.696;2023-01-23T02:21:07;21.00;;;9.95;;
65691;SDS011;52411;52.716;6.696;2023-01-23T02:26:11;21.10;;;9.75;;
65691;SDS011;52411;52.716;6.696;2023-01-23T02:28:43;24.25;;;10.50;;
65691;SDS011;52411;52.716;6.696;2023-01-23T02:31:13;25.05;;;10.25;;
65691;SDS011;52411;52.716;6.696;2023-01-23T02:33:42;21.15;;;10.07;;
65691;SDS011;52411;52.716;6.696;2023-01-23T02:36:10;20.45;;;10.20;;
65691;SDS011;52411;52.716;6.696;2023-01-23T02:38:39;23.38;;;10.75;;
65691;SDS011;52411;52.716;6.696;2023-01-23T02:41:29;20.45;;;10.65;;
65691;SDS011;52411;52.716;6.696;2023-01-23T02:44:11;18.85;;;9.88;;
65691;SDS011;52411;52.716;6.696;2023-01-23T02:46:40;22.20;;;10.40;;
65691;SDS011;52411;52.716;6.696;2023-01-23T02:49:06;22.20;;;10.35;;
65691;SDS011;52411;52.716;6.696;2023-01-23T02:51:32;20.65;;;10.38;;
65691;SDS011;52411;52.716;6.696;2023-01-23T02:53:57;22.13;;;10.07;;
65691;SDS011;52411;52.716;6.696;2023-01-23T02:56:23;22.27;;;10.52;;
65691;SDS011;52411;52.716;6.696;2023-01-23T02:58:49;19.33;;;10.27;;
65691;SDS011;52411;52.716;6.696;2023-01-23T03:01:33;22.75;;;10.05;;
65691;SDS011;52411;52.716;6.696;2023-01-23T03:04:00;24.65;;;11.57;;
65691;SDS011;52411;52.716;6.696;2023-01-23T03:06:30;27.83;;;10.37;;
65691;SDS011;52411;52.716;6.696;2023-01-23T03:09:01;24.20;;;10.32;;
65691;SDS011;52411;52.716;6.696;2023-01-23T03:11:32;26.77;;;10.90;;
65691;SDS011;52411;52.716;6.696;2023-01-23T03:13:59;22.05;;;10.50;;
65691;SDS011;52411;52.716;6.696;2023-01-23T03:16:24;22.40;;;10.77;;
65691;SDS011;52411;52.716;6.696;2023-01-23T03:18:50;26.45;;;10.85;;
65691;SDS011;52411;52.716;6.696;2023-01-23T03:21:15;18.92;;;9.60;;
65691;SDS011;52411;52.716;6.696;2023-01-23T03:23:41;18.35;;;9.88;;
65691;SDS011;52411;52.716;6.696;2023-01-23T03:26:10;22.38;;;10.63;;
65691;SDS011;52411;52.716;6.696;2023-01-23T03:28:36;20.35;;;9.93;;
65691;SDS011;52411;52.716;6.696;2023-01-23T03:31:20;21.60;;;9.70;;
65691;SDS011;52411;52.716;6.696;2023-01-23T03:33:46;22.58;;;10.13;;
65691;SDS011;52411;52.716;6.696;2023-01-23T03:36:12;22.75;;;11.50;;
65691;SDS011;52411;52.716;6.696;2023-01-23T03:38:38;19.70;;;9.82;;
65691;SDS011;52411;52.716;6.696;2023-01-23T03:41:24;20.17;;;10.35;;
65691;SDS011;52411;52.716;6.696;2023-01-23T03:43:50;20.75;;;10.40;;
65691;SDS011;52411;52.716;6.696;2023-01-23T03:46:16;20.48;;;10.00;;
65691;SDS011;52411;52.716;6.696;2023-01-23T03:48:42;21.05;;;9.82;;
65691;SDS011;52411;52.716;6.696;2023-01-23T03:51:07;22.02;;;10.10;;
65691;SDS011;52411;52.716;6.696;2023-01-23T03:53:33;21.17;;;10.23;;
65691;SDS011;52411;52.716;6.696;2023-01-23T03:55:58;19.83;;;9.98;;
65691;SDS011;52411;52.716;6.696;2023-01-23T03:58:25;21.08;;;10.73;;
65691;SDS011;52411;52.716;6.696;2023-01-23T04:00:50;24.15;;;11.00;;
65691;SDS011;52411;52.716;6.696;2023-01-23T04:03:16;22.08;;;10.45;;
65691;SDS011;52411;52.716;6.696;2023-01-23T04:05:42;27.83;;;11.02;;
65691;SDS011;52411;52.716;6.696;2023-01-23T04:08:07;24.98;;;11.20;;
65691;SDS011;52411;52.716;6.696;2023-01-23T04:10:33;22.40;;;10.50;;
65691;SDS011;52411;52.716;6.696;2023-01-23T04:12:58;24.55;;;10.68;;
65691;SDS011;52411;52.716;6.696;2023-01-23T04:15:24;23.20;;;10.77;;
65691;SDS011;52411;52.716;6.696;2023-01-23T04:17:50;20.38;;;9.73;;
65691;SDS011;52411;52.716;6.696;2023-01-23T04:20:15;24.27;;;10.73;;
65691;SDS011;52411;52.716;6.696;2023-01-23T04:22:41;27.73;;;11.43;;
65691;SDS011;52411;52.716;6.696;2023-01-23T04:25:07;25.05;;;11.07;;
65691;SDS011;52411;52.716;6.696;2023-01-23T04:27:32;20.42;;;11.30;;
65691;SDS011;52411;52.716;6.696;2023-01-23T04:29:58;22.45;;;11.30;;
65691;SDS011;52411;52.716;6.696;2023-01-23T04:32:24;22.13;;;10.98;;
65691;SDS011;52411;52.716;6.696;2023-01-23T04:34:50;23.50;;;10.82;;
65691;SDS011;52411;52.716;6.696;2023-01-23T04:37:15;23.83;;;10.70;;
65691;SDS011;52411;52.716;6.696;2023-01-23T04:39:41;21.70;;;10.55;;
65691;SDS011;52411;52.716;6.696;2023-01-23T04:42:07;23.83;;;10.80;;
65691;SDS011;52411;52.716;6.696;2023-01-23T04:44:33;20.48;;;10.55;;
65691;SDS011;52411;52.716;6.696;2023-01-23T04:46:59;22.40;;;10.80;;
65691;SDS011;52411;52.716;6.696;2023-01-23T04:49:25;23.33;;;11.02;;
65691;SDS011;52411;52.716;6.696;2023-01-23T04:51:52;24.35;;;11.25;;
65691;SDS011;52411;52.716;6.696;2023-01-23T04:54:18;19.73;;;10.68;;
65691;SDS011;52411;52.716;6.696;2023-01-23T04:56:44;23.33;;;11.38;;
65691;SDS011;52411;52.716;6.696;2023-01-23T04:59:11;27.67;;;11.30;;
65691;SDS011;52411;52.716;6.696;2023-01-23T05:01:37;20.92;;;11.40;;
65691;SDS011;52411;52.716;6.696;2023-01-23T05:04:03;22.70;;;11.23;;
65691;SDS011;52411;52.716;6.696;2023-01-23T05:06:29;23.88;;;11.50;;
65691;SDS011;52411;52.716;6.696;2023-01-23T05:08:55;24.58;;;11.15;;
65691;SDS011;52411;52.716;6.696;2023-01-23T05:11:20;24.63;;;11.82;;
65691;SDS011;52411;52.716;6.696;2023-01-23T05:13:46;22.63;;;11.80;;
65691;SDS011;52411;52.716;6.696;2023-01-23T05:16:12;21.70;;;10.43;;
65691;SDS011;52411;52.716;6.696;2023-01-23T05:18:38;20.25;;;10.73;;
65691;SDS011;52411;52.716;6.696;2023-01-23T05:21:03;19.40;;;9.73;;
65691;SDS011;52411;52.716;6.696;2023-01-23T05:23:29;22.92;;;11.15;;
65691;SDS011;52411;52.716;6.696;2023-01-23T05:25:55;21.10;;;10.93;;
65691;SDS011;52411;52.716;6.696;2023-01-23T05:28:20;20.85;;;10.77;;
65691;SDS011;52411;52.716;6.696;2023-01-23T05:30:46;22.35;;;11.02;;
65691;SDS011;52411;52.716;6.696;2023-01-23T05:33:12;24.70;;;11.60;;
65691;SDS011;52411;52.716;6.696;2023-01-23T05:35:37;26.45;;;11.30;;
65691;SDS011;52411;52.716;6.696;2023-01-23T05:38:04;23.15;;;11.35;;
65691;SDS011;52411;52.716;6.696;2023-01-23T05:40:30;21.23;;;10.80;;
65691;SDS011;52411;52.716;6.696;2023-01-23T05:42:55;22.02;;;11.30;;
65691;SDS011;52411;52.716;6.696;2023-01-23T05:45:21;23.83;;;10.85;;
65691;SDS011;52411;52.716;6.696;2023-01-23T05:47:47;25.42;;;12.23;;
65691;SDS011;52411;52.716;6.696;2023-01-23T05:50:13;28.27;;;10.95;;
65691;SDS011;52411;52.716;6.696;2023-01-23T05:52:40;22.48;;;10.82;;
65691;SDS011;52411;52.716;6.696;2023-01-23T05:55:06;23.33;;;11.45;;
65691;SDS011;52411;52.716;6.696;2023-01-23T05:57:32;23.60;;;11.18;;
65691;SDS011;52411;52.716;6.696;2023-01-23T05:59:58;22.98;;;10.50;;
65691;SDS011;52411;52.716;6.696;2023-01-23T06:02:23;26.42;;;11.27;;
65691;SDS011;52411;52.716;6.696;2023-01-23T06:04:49;20.83;;;10.57;;
65691;SDS011;52411;52.716;6.696;2023-01-23T06:07:15;20.80;;;10.15;;
65691;SDS011;52411;52.716;6.696;2023-01-23T06:09:42;20.30;;;11.10;;
65691;SDS011;52411;52.716;6.696;2023-01-23T06:12:08;21.95;;;10.30;;
65691;SDS011;52411;52.716;6.696;2023-01-23T06:14:34;23.58;;;10.93;;
65691;SDS011;52411;52.716;6.696;2023-01-23T06:17:00;26.85;;;12.57;;
65691;SDS011;52411;52.716;6.696;2023-01-23T06:19:28;21.77;;;11.13;;
65691;SDS011;52411;52.716;6.696;2023-01-23T06:21:56;20.40;;;10.93;;
65691;SDS011;52411;52.716;6.696;2023-01-23T06:24:21;23.65;;;11.32;;
65691;SDS011;52411;52.716;6.696;2023-01-23T06:26:47;24.65;;;12.02;;
65691;SDS011;52411;52.716;6.696;2023-01-23T06:29:13;22.63;;;11.57;;
65691;SDS011;52411;52.716;6.696;2023-01-23T06:31:38;24.00;;;11.98;;
65691;SDS011;52411;52.716;6.696;2023-01-23T06:34:05;22.50;;;10.77;;
65691;SDS011;52411;52.716;6.696;2023-01-23T06:36:31;23.33;;;11.43;;
65691;SDS011;52411;52.716;6.696;2023-01-23T06:38:58;24.40;;;11.65;;
65691;SDS011;52411;52.716;6.696;2023-01-23T06:41:23;21.13;;;10.93;;
65691;SDS011;52411;52.716;6.696;2023-01-23T06:43:49;22.75;;;11.93;;
65691;SDS011;52411;52.716;6.696;2023-01-23T06:46:15;21.42;;;11.05;;
65691;SDS011;52411;52.716;6.696;2023-01-23T06:48:40;25.33;;;11.70;;
65691;SDS011;52411;52.716;6.696;2023-01-23T06:51:06;21.85;;;11.00;;
65691;SDS011;52411;52.716;6.696;2023-01-23T06:53:31;19.98;;;10.45;;
65691;SDS011;52411;52.716;6.696;2023-01-23T06:56:01;22.65;;;10.63;;
65691;SDS011;52411;52.716;6.696;2023-01-23T06:58:28;23.75;;;10.48;;
65691;SDS011;52411;52.716;6.696;2023-01-23T07:00:54;21.15;;;11.02;;
65691;SDS011;52411;52.716;6.696;2023-01-23T07:03:20;20.35;;;10.85;;
65691;SDS011;52411;52.716;6.696;2023-01-23T07:05:46;20.33;;;11.10;;
65691;SDS011;52411;52.716;6.696;2023-01-23T07:08:11;21.85;;;10.93;;
65691;SDS011;52411;52.716;6.696;2023-01-23T07:10:37;20.17;;;10.77;;
65691;SDS011;52411;52.716;6.696;2023-01-23T07:13:04;20.67;;;10.68;;
65691;SDS011;52411;52.716;6.696;2023-01-23T07:15:31;19.92;;;10.73;;
65691;SDS011;52411;52.716;6.696;2023-01-23T07:17:57;22.42;;;10.73;;
65691;SDS011;52411;52.716;6.696;2023-01-23T07:20:23;21.70;;;10.50;;
65691;SDS011;52411;52.716;6.696;2023-01-23T07:22:55;22.17;;;10.90;;
65691;SDS011;52411;52.716;6.696;2023-01-23T07:25:22;20.33;;;11.23;;
65691;SDS011;52411;52.716;6.696;2023-01-23T07:27:49;23.13;;;11.00;;
65691;SDS011;52411;52.716;6.696;2023-01-23T07:30:14;24.20;;;10.57;;
65691;SDS011;52411;52.716;6.696;2023-01-23T07:32:41;22.10;;;11.15;;
65691;SDS011;52411;52.716;6.696;2023-01-23T07:35:07;20.80;;;11.02;;
65691;SDS011;52411;52.716;6.696;2023-01-23T07:37:33;24.40;;;11.23;;
65691;SDS011;52411;52.716;6.696;2023-01-23T07:39:59;23.38;;;10.93;;
65691;SDS011;52411;52.716;6.696;2023-01-23T07:42:24;21.65;;;10.73;;
65691;SDS011;52411;52.716;6.696;2023-01-23T07:44:50;25.05;;;11.82;;
65691;SDS011;52411;52.716;6.696;2023-01-23T07:47:16;19.40;;;10.95;;
65691;SDS011;52411;52.716;6.696;2023-01-23T07:49:42;24.40;;;11.88;;
65691;SDS011;52411;52.716;6.696;2023-01-23T07:52:07;23.08;;;11.63;;
65691;SDS011;52411;52.716;6.696;2023-01-23T07:56:58;23.35;;;11.38;;
65691;SDS011;52411;52.716;6.696;2023-01-23T07:59:24;22.85;;;10.98;;
65691;SDS011;52411;52.716;6.696;2023-01-23T08:01:50;26.75;;;11.73;;
65691;SDS011;52411;52.716;6.696;2023-01-23T08:04:16;23.02;;;11.07;;
65691;SDS011;52411;52.716;6.696;2023-01-23T08:06:43;22.13;;;11.02;;
65691;SDS011;52411;52.716;6.696;2023-01-23T08:09:08;23.73;;;11.30;;
65691;SDS011;52411;52.716;6.696;2023-01-23T08:11:34;23.67;;;11.80;;
65691;SDS011;52411;52.716;6.696;2023-01-23T08:14:00;23.17;;;11.68;;
65691;SDS011;52411;52.716;6.696;2023-01-23T08:16:26;22.92;;;11.52;;
65691;SDS011;52411;52.716;6.696;2023-01-23T08:18:52;22.90;;;11.40;;
65691;SDS011;52411;52.716;6.696;2023-01-23T08:21:18;25.90;;;12.25;;
65691;SDS011;52411;52.716;6.696;2023-01-23T08:23:44;23.92;;;11.90;;
65691;SDS011;52411;52.716;6.696;2023-01-23T08:26:10;24.20;;;12.38;;
65691;SDS011;52411;52.716;6.696;2023-01-23T08:28:38;22.75;;;11.38;;
65691;SDS011;52411;52.716;6.696;2023-01-23T08:31:08;23.92;;;11.48;;
65691;SDS011;52411;52.716;6.696;2023-01-23T08:33:35;21.50;;;11.63;;
65691;SDS011;52411;52.716;6.696;2023-01-23T08:36:02;26.63;;;12.52;;
65691;SDS011;52411;52.716;6.696;2023-01-23T08:38:30;22.63;;;11.75;;
65691;SDS011;52411;52.716;6.696;2023-01-23T08:40:57;25.83;;;12.07;;
65691;SDS011;52411;52.716;6.696;2023-01-23T08:43:24;22.75;;;11.52;;
65691;SDS011;52411;52.716;6.696;2023-01-23T08:45:50;21.38;;;11.10;;
65691;SDS011;52411;52.716;6.696;2023-01-23T08:48:17;27.67;;;11.90;;
65691;SDS011;52411;52.716;6.696;2023-01-23T08:50:44;21.98;;;12.20;;
65691;SDS011;52411;52.716;6.696;2023-01-23T08:53:11;21.50;;;11.88;;
65691;SDS011;52411;52.716;6.696;2023-01-23T08:55:37;22.70;;;11.63;;
65691;SDS011;52411;52.716;6.696;2023-01-23T08:58:04;24.70;;;11.23;;
65691;SDS011;52411;52.716;6.696;2023-01-23T09:00:31;20.42;;;10.63;;
65691;SDS011;52411;52.716;6.696;2023-01-23T09:03:00;21.70;;;11.30;;
65691;SDS011;52411;52.716;6.696;2023-01-23T09:05:27;21.33;;;11.05;;
65691;SDS011;52411;52.716;6.696;2023-01-23T09:07:53;22.75;;;10.98;;
65691;SDS011;52411;52.716;6.696;2023-01-23T09:10:19;22.35;;;11.32;;
65691;SDS011;52411;52.716;6.696;2023-01-23T09:12:46;21.35;;;10.98;;
65691;SDS011;52411;52.716;6.696;2023-01-23T09:15:11;24.48;;;11.95;;
65691;SDS011;52411;52.716;6.696;2023-01-23T09:17:37;22.75;;;11.95;;
65691;SDS011;52411;52.716;6.696;2023-01-23T09:20:03;19.70;;;10.45;;
65691;SDS011;52411;52.716;6.696;2023-01-23T09:22:31;25.13;;;12.02;;
65691;SDS011;52411;52.716;6.696;2023-01-23T09:24:56;22.73;;;11.23;;
65691;SDS011;52411;52.716;6.696;2023-01-23T09:27:22;18.50;;;10.88;;
65691;SDS011;52411;52.716;6.696;2023-01-23T09:29:48;23.00;;;10.70;;
65691;SDS011;52411;52.716;6.696;2023-01-23T09:32:14;20.65;;;10.85;;
65691;SDS011;52411;52.716;6.696;2023-01-23T09:34:40;16.30;;;9.57;;
65691;SDS011;52411;52.716;6.696;2023-01-23T09:37:06;20.17;;;10.93;;
65691;SDS011;52411;52.716;6.696;2023-01-23T09:39:31;21.73;;;10.80;;
65691;SDS011;52411;52.716;6.696;2023-01-23T09:41:57;20.23;;;10.60;;
65691;SDS011;52411;52.716;6.696;2023-01-23T09:47:12;18.23;;;10.45;;
65691;SDS011;52411;52.716;6.696;2023-01-23T09:50:04;20.75;;;10.80;;
65691;SDS011;52411;52.716;6.696;2023-01-23T09:52:37;21.80;;;10.02;;
65691;SDS011;52411;52.716;6.696;2023-01-23T09:55:12;17.88;;;10.20;;
65691;SDS011;52411;52.716;6.696;2023-01-23T10:00:24;25.85;;;10.95;;
65691;SDS011;52411;52.716;6.696;2023-01-23T10:02:57;20.85;;;10.48;;
65691;SDS011;52411;52.716;6.696;2023-01-23T10:08:45;17.50;;;10.50;;
65691;SDS011;52411;52.716;6.696;2023-01-23T10:11:22;17.98;;;10.20;;
65691;SDS011;52411;52.716;6.696;2023-01-23T10:16:59;18.00;;;10.25;;
65691;SDS011;52411;52.716;6.696;2023-01-23T10:19:46;19.90;;;10.52;;
65691;SDS011;52411;52.716;6.696;2023-01-23T10:22:37;18.00;;;9.45;;
65691;SDS011;52411;52.716;6.696;2023-01-23T10:25:27;16.95;;;9.63;;
65691;SDS011;52411;52.716;6.696;2023-01-23T10:28:01;19.50;;;9.88;;
65691;SDS011;52411;52.716;6.696;2023-01-23T10:30:36;19.27;;;10.38;;
65691;SDS011;52411;52.716;6.696;2023-01-23T10:33:10;19.10;;;10.10;;
65691;SDS011;52411;52.716;6.696;2023-01-23T10:35:42;17.95;;;9.95;;
65691;SDS011;52411;52.716;6.696;2023-01-23T10:41:10;18.08;;;9.32;;
65691;SDS011;52411;52.716;6.696;2023-01-23T10:43:38;17.95;;;9.52;;
65691;SDS011;52411;52.716;6.696;2023-01-23T10:46:09;16.95;;;9.88;;
65691;SDS011;52411;52.716;6.696;2023-01-23T10:54:01;14.90;;;8.57;;
65691;SDS011;52411;52.716;6.696;2023-01-23T10:59:00;16.88;;;9.02;;
65691;SDS011;52411;52.716;6.696;2023-01-23T11:01:31;13.98;;;7.78;;
65691;SDS011;52411;52.716;6.696;2023-01-23T11:04:08;19.27;;;9.65;;
65691;SDS011;52411;52.716;6.696;2023-01-23T11:06:44;16.38;;;8.93;;
65691;SDS011;52411;52.716;6.696;2023-01-23T11:09:28;16.85;;;9.65;;
65691;SDS011;52411;52.716;6.696;2023-01-23T11:12:04;10.13;;;5.40;;
65691;SDS011;52411;52.716;6.696;2023-01-23T11:14:38;18.52;;;9.35;;
65691;SDS011;52411;52.716;6.696;2023-01-23T11:17:14;20.15;;;9.63;;
65691;SDS011;52411;52.716;6.696;2023-01-23T11:19:42;17.70;;;8.88;;
65691;SDS011;52411;52.716;6.696;2023-01-23T11:22:22;18.70;;;9.15;;
65691;SDS011;52411;52.716;6.696;2023-01-23T11:24:51;14.55;;;8.38;;
65691;SDS011;52411;52.716;6.696;2023-01-23T11:27:18;15.40;;;6.68;;
65691;SDS011;52411;52.716;6.696;2023-01-23T11:32:38;10.85;;;5.18;;
65691;SDS011;52411;52.716;6.696;2023-01-23T11:35:19;20.35;;;9.60;;
65691;SDS011;52411;52.716;6.696;2023-01-23T11:37:51;17.35;;;9.30;;
65691;SDS011;52411;52.716;6.696;2023-01-23T11:40:19;18.30;;;9.93;;
65691;SDS011;52411;52.716;6.696;2023-01-23T11:42:45;15.65;;;9.00;;
65691;SDS011;52411;52.716;6.696;2023-01-23T12:07:56;15.57;;;8.88;;
65691;SDS011;52411;52.716;6.696;2023-01-23T12:16:29;15.13;;;9.15;;
65691;SDS011;52411;52.716;6.696;2023-01-23T12:19:16;17.33;;;8.98;;
65691;SDS011;52411;52.716;6.696;2023-01-23T12:27:35;18.80;;;9.68;;
65691;SDS011;52411;52.716;6.696;2023-01-23T12:30:32;19.15;;;9.35;;
65691;SDS011;52411;52.716;6.696;2023-01-23T12:38:44;20.05;;;10.00;;
65691;SDS011;52411;52.716;6.696;2023-01-23T12:44:16;15.15;;;8.82;;
65691;SDS011;52411;52.716;6.696;2023-01-23T12:47:05;15.73;;;9.32;;
65691;SDS011;52411;52.716;6.696;2023-01-23T12:49:39;16.67;;;9.63;;
65691;SDS011;52411;52.716;6.696;2023-01-23T12:52:09;15.38;;;8.75;;
65691;SDS011;52411;52.716;6.696;2023-01-23T12:54:50;16.60;;;9.10;;
65691;SDS011;52411;52.716;6.696;2023-01-23T12:57:23;18.02;;;9.65;;
65691;SDS011;52411;52.716;6.696;2023-01-23T13:02:52;16.53;;;9.17;;
65691;SDS011;52411;52.716;6.696;2023-01-23T13:05:52;16.90;;;8.85;;
65691;SDS011;52411;52.716;6.696;2023-01-23T13:08:44;15.00;;;9.15;;
65691;SDS011;52411;52.716;6.696;2023-01-23T13:11:22;22.10;;;9.38;;
65691;SDS011;52411;52.716;6.696;2023-01-23T13:14:22;15.37;;;8.70;;
65691;SDS011;52411;52.716;6.696;2023-01-23T13:16:48;15.80;;;9.18;;
65691;SDS011;52411;52.716;6.696;2023-01-23T13:19:22;15.38;;;8.75;;
65691;SDS011;52411;52.716;6.696;2023-01-23T13:22:13;16.65;;;9.10;;
65691;SDS011;52411;52.716;6.696;2023-01-23T13:32:54;15.07;;;8.95;;
65691;SDS011;52411;52.716;6.696;2023-01-23T13:38:31;19.75;;;9.52;;
65691;SDS011;52411;52.716;6.696;2023-01-23T13:52:09;20.20;;;10.75;;
65691;SDS011;52411;52.716;6.696;2023-01-23T13:54:55;23.30;;;11.30;;
65691;SDS011;52411;52.716;6.696;2023-01-23T13:57:44;18.73;;;9.85;;
65691;SDS011;52411;52.716;6.696;2023-01-23T14:00:19;18.92;;;9.93;;
65691;SDS011;52411;52.716;6.696;2023-01-23T14:05:43;18.05;;;9.63;;
65691;SDS011;52411;52.716;6.696;2023-01-23T14:08:16;19.85;;;10.77;;
65691;SDS011;52411;52.716;6.696;2023-01-23T14:10:45;17.35;;;9.02;;
65691;SDS011;52411;52.716;6.696;2023-01-23T14:13:16;17.20;;;9.98;;
65691;SDS011;52411;52.716;6.696;2023-01-23T14:15:49;15.93;;;9.88;;
65691;SDS011;52411;52.716;6.696;2023-01-23T14:21:21;18.67;;;9.27;;
65691;SDS011;52411;52.716;6.696;2023-01-23T14:23:57;18.73;;;10.63;;
65691;SDS011;52411;52.716;6.696;2023-01-23T14:26:28;16.25;;;9.68;;
65691;SDS011;52411;52.716;6.696;2023-01-23T14:28:57;20.45;;;10.30;;
65691;SDS011;52411;52.716;6.696;2023-01-23T14:31:28;18.50;;;9.60;;
65691;SDS011;52411;52.716;6.696;2023-01-23T14:33:58;17.13;;;9.32;;
65691;SDS011;52411;52.716;6.696;2023-01-23T14:36:26;19.10;;;10.95;;
65691;SDS011;52411;52.716;6.696;2023-01-23T14:38:53;20.58;;;10.73;;
65691;SDS011;52411;52.716;6.696;2023-01-23T14:41:21;17.63;;;9.98;;
65691;SDS011;52411;52.716;6.696;2023-01-23T14:43:51;20.95;;;10.50;;
65691;SDS011;52411;52.716;6.696;2023-01-23T14:46:19;18.90;;;10.30;;
65691;SDS011;52411;52.716;6.696;2023-01-23T14:48:55;17.70;;;10.43;;
65691;SDS011;52411;52.716;6.696;2023-01-23T14:51:22;19.40;;;10.00;;
65691;SDS011;52411;52.716;6.696;2023-01-23T14:53:52;19.02;;;10.05;;
65691;SDS011;52411;52.716;6.696;2023-01-23T14:56:31;22.10;;;10.85;;
65691;SDS011;52411;52.716;6.696;2023-01-23T14:59:00;18.85;;;10.88;;
65691;SDS011;52411;52.716;6.696;2023-01-23T15:01:28;19.83;;;10.98;;
65691;SDS011;52411;52.716;6.696;2023-01-23T15:04:40;19.25;;;10.50;;
65691;SDS011;52411;52.716;6.696;2023-01-23T15:06:48;18.42;;;10.82;;
65691;SDS011;52411;52.716;6.696;2023-01-23T15:09:32;21.02;;;10.90;;
65691;SDS011;52411;52.716;6.696;2023-01-23T15:12:05;19.33;;;10.50;;
65691;SDS011;52411;52.716;6.696;2023-01-23T15:14:36;20.70;;;11.90;;
65691;SDS011;52411;52.716;6.696;2023-01-23T15:17:04;22.30;;;11.68;;
65691;SDS011;52411;52.716;6.696;2023-01-23T15:19:36;22.88;;;11.20;;
65691;SDS011;52411;52.716;6.696;2023-01-23T15:24:54;20.30;;;11.30;;
65691;SDS011;52411;52.716;6.696;2023-01-23T15:27:30;21.75;;;11.43;;
65691;SDS011;52411;52.716;6.696;2023-01-23T15:33:18;21.95;;;10.95;;
65691;SDS011;52411;52.716;6.696;2023-01-23T15:35:59;19.77;;;11.07;;
65691;SDS011;52411;52.716;6.696;2023-01-23T15:38:30;23.90;;;11.27;;
65691;SDS011;52411;52.716;6.696;2023-01-23T15:40:55;20.95;;;11.63;;
65691;SDS011;52411;52.716;6.696;2023-01-23T15:43:22;22.17;;;11.05;;
65691;SDS011;52411;52.716;6.696;2023-01-23T15:45:47;20.88;;;11.02;;
65691;SDS011;52411;52.716;6.696;2023-01-23T15:48:13;22.38;;;12.07;;
65691;SDS011;52411;52.716;6.696;2023-01-23T15:50:39;21.95;;;11.45;;
65691;SDS011;52411;52.716;6.696;2023-01-23T15:53:09;19.98;;;10.90;;
65691;SDS011;52411;52.716;6.696;2023-01-23T15:55:37;19.60;;;11.23;;
65691;SDS011;52411;52.716;6.696;2023-01-23T15:58:02;20.92;;;11.57;;
65691;SDS011;52411;52.716;6.696;2023-01-23T16:00:28;21.77;;;11.68;;
65691;SDS011;52411;52.716;6.696;2023-01-23T16:02:55;27.15;;;11.75;;
65691;SDS011;52411;52.716;6.696;2023-01-23T16:05:28;23.67;;;12.05;;
65691;SDS011;52411;52.716;6.696;2023-01-23T16:07:57;21.42;;;11.35;;
65691;SDS011;52411;52.716;6.696;2023-01-23T16:10:36;23.10;;;11.88;;
65691;SDS011;52411;52.716;6.696;2023-01-23T16:13:03;22.63;;;11.95;;
65691;SDS011;52411;52.716;6.696;2023-01-23T16:15:31;24.40;;;12.30;;
65691;SDS011;52411;52.716;6.696;2023-01-23T16:17:58;22.52;;;11.50;;
65691;SDS011;52411;52.716;6.696;2023-01-23T16:20:28;23.17;;;12.25;;
65691;SDS011;52411;52.716;6.696;2023-01-23T16:22:59;21.38;;;11.30;;
65691;SDS011;52411;52.716;6.696;2023-01-23T16:25:28;22.77;;;11.68;;
65691;SDS011;52411;52.716;6.696;2023-01-23T16:28:00;23.67;;;12.10;;
65691;SDS011;52411;52.716;6.696;2023-01-23T16:30:26;20.77;;;12.27;;
65691;SDS011;52411;52.716;6.696;2023-01-23T16:32:52;22.70;;;12.13;;
65691;SDS011;52411;52.716;6.696;2023-01-23T16:35:19;21.55;;;11.68;;